Time;durP1;ratioP1;P1;durP2;ratioP2;P2;SDS_P1;SDS_P2;PMS_P1;PMS_P2;Temp;Humidity;BMP_temperature;BMP_pressure;BME280_temperature;BME280_humidity;BME280_pressure;Samples;Min_cycle;Max_cycle;Signal;HPM_P1;HPM_P2
2020/12/04 00:01:43;;;;;;;13.40;10.43;;;5.70;93.70;;;;;;5069185;28;20041;-43
2020/12/04 00:04:09;;;;;;;12.60;9.90;;;5.70;93.70;;;;;;5068719;28;20063;-42
2020/12/04 00:06:35;;;;;;;14.15;10.13;;;5.70;93.70;;;;;;5069341;28;20024;-42
2020/12/04 00:09:02;;;;;;;13.43;10.48;;;5.70;93.60;;;;;;5069080;28;20032;-43
2020/12/04 00:11:32;;;;;;;12.77;10.13;;;5.70;93.60;;;;;;5068539;28;20044;-43
2020/12/04 00:13:58;;;;;;;11.50;9.32;;;5.70;93.50;;;;;;5069169;28;20032;-43
2020/12/04 00:16:23;;;;;;;10.95;8.82;;;5.70;93.50;;;;;;5068156;28;20400;-43
2020/12/04 00:18:49;;;;;;;10.95;8.75;;;5.70;93.50;;;;;;5069087;28;20024;-43
2020/12/04 00:21:14;;;;;;;11.10;9.10;;;5.70;93.40;;;;;;5068408;28;20483;-43
2020/12/04 00:23:40;;;;;;;12.23;9.00;;;5.70;93.20;;;;;;5068355;28;20036;-43
2020/12/04 00:26:05;;;;;;;11.38;8.90;;;5.70;93.30;;;;;;5068406;28;20074;-43
2020/12/04 00:28:31;;;;;;;11.00;8.90;;;5.70;93.30;;;;;;5068558;28;20025;-41
2020/12/04 00:30:56;;;;;;;11.35;8.88;;;5.70;93.30;;;;;;5068457;28;20028;-43
2020/12/04 00:33:22;;;;;;;11.15;8.90;;;5.70;93.10;;;;;;5068405;28;20388;-43
2020/12/04 00:35:48;;;;;;;11.05;8.55;;;5.70;93.10;;;;;;5068766;28;20039;-43
2020/12/04 00:38:13;;;;;;;11.57;8.68;;;5.80;93.10;;;;;;5067681;28;20029;-43
2020/12/04 00:40:38;;;;;;;11.35;8.95;;;5.80;93.10;;;;;;5068655;28;20074;-42
2020/12/04 00:43:04;;;;;;;11.80;8.38;;;5.80;93.10;;;;;;5068201;28;20056;-43
2020/12/04 00:45:30;;;;;;;11.95;9.43;;;5.80;93.00;;;;;;5067665;28;20028;-43
2020/12/04 00:47:55;;;;;;;10.27;8.63;;;5.80;93.10;;;;;;5069003;28;20455;-43
2020/12/04 00:50:21;;;;;;;12.48;8.85;;;5.80;93.10;;;;;;5068059;28;20479;-42
2020/12/04 00:52:46;;;;;;;11.98;9.43;;;5.80;93.10;;;;;;5068241;28;20032;-43
2020/12/04 00:55:14;;;;;;;11.23;9.35;;;5.80;93.10;;;;;;5067887;28;20025;-43
2020/12/04 00:57:39;;;;;;;12.70;9.77;;;5.80;93.00;;;;;;5068392;28;20032;-42
2020/12/04 01:00:05;;;;;;;11.35;8.88;;;5.80;93.00;;;;;;5068482;28;20375;-42
2020/12/04 01:02:30;;;;;;;12.75;9.70;;;5.80;93.00;;;;;;5068050;28;20069;-42
2020/12/04 01:04:56;;;;;;;12.63;10.02;;;5.80;92.90;;;;;;5068061;28;20032;-42
2020/12/04 01:07:21;;;;;;;11.15;8.73;;;5.80;92.90;;;;;;5067824;28;20020;-43
2020/12/04 01:09:47;;;;;;;12.70;9.23;;;5.80;92.90;;;;;;5068364;28;20368;-43
2020/12/04 01:12:14;;;;;;;10.80;8.68;;;5.80;92.90;;;;;;5067129;28;20397;-42
2020/12/04 01:14:39;;;;;;;12.48;9.38;;;5.80;92.90;;;;;;5068532;28;20052;-41
2020/12/04 01:17:05;;;;;;;12.18;9.38;;;5.80;93.10;;;;;;5068484;28;20052;-43
2020/12/04 01:19:30;;;;;;;10.52;8.73;;;5.80;92.90;;;;;;5067802;28;20013;-43
2020/12/04 01:21:56;;;;;;;10.73;8.50;;;5.80;92.80;;;;;;5067915;28;20340;-42
2020/12/04 01:24:21;;;;;;;13.25;8.75;;;5.80;92.80;;;;;;5067467;28;20078;-42
2020/12/04 01:26:47;;;;;;;11.05;8.65;;;5.70;93.10;;;;;;5067617;28;20024;-43
2020/12/04 01:29:12;;;;;;;12.10;9.80;;;5.80;92.80;;;;;;5067959;28;20036;-43
2020/12/04 01:31:38;;;;;;;12.32;9.23;;;5.80;92.90;;;;;;5068042;28;20035;-43
2020/12/04 01:34:03;;;;;;;11.75;8.70;;;5.80;92.90;;;;;;5067666;28;20037;-43
2020/12/04 01:36:32;;;;;;;11.75;9.43;;;5.80;92.90;;;;;;5067738;28;20030;-42
2020/12/04 01:38:58;;;;;;;12.02;9.13;;;5.80;92.90;;;;;;5067832;28;20055;-43
2020/12/04 01:41:23;;;;;;;12.05;9.25;;;5.80;92.80;;;;;;5067125;28;20040;-42
2020/12/04 01:43:49;;;;;;;12.75;8.68;;;5.80;92.80;;;;;;5067502;28;20052;-43
2020/12/04 01:46:15;;;;;;;10.82;8.77;;;5.80;92.80;;;;;;5067422;28;20036;-43
2020/12/04 01:48:43;;;;;;;11.52;9.15;;;5.80;92.80;;;;;;5067481;28;20036;-42
2020/12/04 01:51:09;;;;;;;10.25;8.30;;;5.80;92.90;;;;;;5067497;28;20097;-43
2020/12/04 01:53:35;;;;;;;11.18;9.38;;;5.80;93.00;;;;;;5067756;28;20480;-43
2020/12/04 01:56:01;;;;;;;9.75;7.57;;;5.70;93.00;;;;;;5067290;28;20028;-43
2020/12/04 01:58:27;;;;;;;10.45;8.50;;;5.70;93.00;;;;;;5067736;28;20028;-43
2020/12/04 02:00:52;;;;;;;10.27;8.05;;;5.70;93.00;;;;;;5067930;28;20024;-42
2020/12/04 02:03:18;;;;;;;9.68;7.80;;;5.70;92.90;;;;;;5066767;28;20113;-42
2020/12/04 02:05:59;;;;;;;10.63;8.00;;;5.70;92.90;;;;;;5068089;28;20032;-43
2020/12/04 02:08:38;;;;;;;9.85;7.40;;;5.70;93.00;;;;;;5068147;28;20032;-43
2020/12/04 02:11:15;;;;;;;9.35;7.68;;;5.70;93.30;;;;;;5071658;28;20036;-41
2020/12/04 02:13:45;;;;;;;9.50;7.35;;;5.70;93.10;;;;;;5071412;28;20031;-43
2020/12/04 02:16:18;;;;;;;9.68;7.63;;;5.80;93.20;;;;;;5070467;28;20478;-43
2020/12/04 02:18:44;;;;;;;9.35;7.72;;;5.70;93.20;;;;;;5071195;28;20029;-43
2020/12/04 02:21:10;;;;;;;10.13;7.28;;;5.70;93.20;;;;;;5070694;28;20020;-42
2020/12/04 02:23:37;;;;;;;9.95;8.15;;;5.80;93.30;;;;;;5071173;28;20040;-44
2020/12/04 02:26:04;;;;;;;9.25;7.78;;;5.70;93.30;;;;;;5071328;28;20024;-42
2020/12/04 02:28:34;;;;;;;9.57;7.63;;;5.70;93.40;;;;;;5070361;28;20472;-43
2020/12/04 02:31:00;;;;;;;9.88;7.80;;;5.70;93.40;;;;;;5070968;28;20036;-42
2020/12/04 02:33:26;;;;;;;9.20;7.13;;;5.70;93.50;;;;;;5070407;28;20518;-43
2020/12/04 02:35:52;;;;;;;9.52;7.53;;;5.70;93.50;;;;;;5071009;28;20155;-42
2020/12/04 02:38:18;;;;;;;10.32;8.05;;;5.70;93.60;;;;;;5070125;28;20032;-43
2020/12/04 02:40:43;;;;;;;10.85;8.45;;;5.70;93.60;;;;;;5070872;28;20061;-42
2020/12/04 02:43:09;;;;;;;10.82;8.32;;;5.70;93.70;;;;;;5070090;28;20052;-43
2020/12/04 02:45:34;;;;;;;10.07;8.18;;;5.60;93.80;;;;;;5070762;28;20031;-42
2020/12/04 02:48:00;;;;;;;9.57;7.72;;;5.60;93.80;;;;;;5070832;28;20395;-42
2020/12/04 02:50:25;;;;;;;10.65;7.43;;;5.60;93.90;;;;;;5069918;28;20483;-43
2020/12/04 02:52:52;;;;;;;9.18;7.30;;;5.60;94.00;;;;;;5071181;28;20039;-43
2020/12/04 02:55:17;;;;;;;9.68;7.03;;;5.60;94.00;;;;;;5070466;28;20020;-42
2020/12/04 02:57:43;;;;;;;9.73;7.90;;;5.60;94.00;;;;;;5070161;28;20458;-42
2020/12/04 03:00:08;;;;;;;9.80;7.40;;;5.60;94.10;;;;;;5070359;28;20127;-42
2020/12/04 03:02:34;;;;;;;9.82;8.18;;;5.60;94.10;;;;;;5070253;28;20028;-42
2020/12/04 03:04:59;;;;;;;9.65;7.45;;;5.60;94.10;;;;;;5070723;28;20043;-41
2020/12/04 03:07:25;;;;;;;8.95;7.18;;;5.60;94.10;;;;;;5070007;28;20048;-43
2020/12/04 03:09:50;;;;;;;8.48;7.30;;;5.60;94.10;;;;;;5070502;28;20085;-43
2020/12/04 03:12:17;;;;;;;8.98;7.05;;;5.60;94.00;;;;;;5069435;28;20021;-43
2020/12/04 03:14:42;;;;;;;9.98;7.45;;;5.60;94.00;;;;;;5070345;28;20031;-42
2020/12/04 03:17:08;;;;;;;8.55;6.97;;;5.60;94.00;;;;;;5069616;28;20029;-42
2020/12/04 03:19:33;;;;;;;9.45;7.05;;;5.60;94.00;;;;;;5069016;28;20048;-42
2020/12/04 03:21:58;;;;;;;9.48;7.40;;;5.60;94.00;;;;;;5070305;28;20103;-42
2020/12/04 03:24:24;;;;;;;11.07;7.63;;;5.70;94.00;;;;;;5069905;28;20405;-43
2020/12/04 03:26:49;;;;;;;8.75;7.30;;;5.70;94.00;;;;;;5069498;28;20024;-42
2020/12/04 03:29:15;;;;;;;9.07;7.68;;;5.70;93.90;;;;;;5069495;28;20036;-42
2020/12/04 03:31:40;;;;;;;10.23;7.57;;;5.70;93.90;;;;;;5070227;28;20033;-43
2020/12/04 03:34:06;;;;;;;9.15;6.80;;;5.70;93.90;;;;;;5069342;28;20062;-43
2020/12/04 03:36:32;;;;;;;8.95;7.05;;;5.70;94.00;;;;;;5069953;28;20476;-43
2020/12/04 03:38:57;;;;;;;8.93;7.03;;;5.70;93.90;;;;;;5069702;28;20364;-43
2020/12/04 03:41:23;;;;;;;8.48;7.13;;;5.70;93.90;;;;;;5068777;28;20090;-43
2020/12/04 03:43:48;;;;;;;8.32;6.82;;;5.70;93.90;;;;;;5069657;28;20412;-44
2020/12/04 03:46:14;;;;;;;9.63;7.18;;;5.70;93.90;;;;;;5068990;28;20028;-42
2020/12/04 03:48:40;;;;;;;8.35;6.75;;;5.70;93.90;;;;;;5069686;28;20435;-43
2020/12/04 03:51:06;;;;;;;7.55;6.43;;;5.70;93.80;;;;;;5069328;28;20021;-43
2020/12/04 03:53:32;;;;;;;8.90;6.95;;;5.70;93.80;;;;;;5069320;28;20024;-43
2020/12/04 03:55:57;;;;;;;11.73;7.53;;;5.70;93.70;;;;;;5069277;28;20029;-43
2020/12/04 03:58:23;;;;;;;7.47;6.30;;;5.70;93.70;;;;;;5069387;28;20480;-42
2020/12/04 04:00:48;;;;;;;8.70;6.65;;;5.70;93.70;;;;;;5068910;28;20070;-43
2020/12/04 04:03:14;;;;;;;8.85;6.90;;;5.80;93.80;;;;;;5068793;28;20029;-43
2020/12/04 04:05:39;;;;;;;9.10;7.32;;;5.80;93.70;;;;;;5069591;28;20013;-43
2020/12/04 04:08:05;;;;;;;8.98;7.65;;;5.80;93.70;;;;;;5068842;28;20479;-42
2020/12/04 04:10:31;;;;;;;9.02;7.30;;;5.80;93.60;;;;;;5069210;28;20374;-42
2020/12/04 04:12:56;;;;;;;8.85;7.00;;;5.80;93.60;;;;;;5069384;28;20131;-43
2020/12/04 04:15:21;;;;;;;7.55;6.70;;;5.80;93.60;;;;;;5067972;28;20054;-42
2020/12/04 04:17:47;;;;;;;8.50;6.35;;;5.80;93.70;;;;;;5069395;28;20019;-43
2020/12/04 04:20:13;;;;;;;6.93;5.80;;;5.80;93.80;;;;;;5068594;28;20475;-43
2020/12/04 04:22:38;;;;;;;6.57;5.68;;;5.80;93.90;;;;;;5068649;28;20024;-43
2020/12/04 04:25:04;;;;;;;6.70;6.00;;;5.80;93.90;;;;;;5069072;28;20048;-44
2020/12/04 04:27:30;;;;;;;6.68;5.75;;;5.80;94.00;;;;;;5068262;28;20070;-43
2020/12/04 04:29:56;;;;;;;7.55;5.65;;;5.80;94.00;;;;;;5068611;28;20625;-43
2020/12/04 04:32:21;;;;;;;6.38;5.70;;;5.80;94.00;;;;;;5068117;28;20032;-43
2020/12/04 04:34:47;;;;;;;6.20;5.57;;;5.80;94.00;;;;;;5068932;28;20037;-43
2020/12/04 04:37:12;;;;;;;7.07;5.80;;;5.80;94.00;;;;;;5068131;28;20044;-44
2020/12/04 04:39:38;;;;;;;6.25;5.18;;;5.90;94.00;;;;;;5068788;28;20485;-43
2020/12/04 04:42:03;;;;;;;6.45;5.30;;;5.90;94.00;;;;;;5068689;28;20033;-43
2020/12/04 04:44:29;;;;;;;6.43;5.47;;;5.90;94.00;;;;;;5067947;28;20032;-43
2020/12/04 04:47:04;;;;;;;5.60;4.80;;;5.90;93.90;;;;;;5068896;28;20373;-42
2020/12/04 04:49:44;;;;;;;6.13;5.35;;;5.90;93.90;;;;;;5068074;28;20036;-43
2020/12/04 04:52:10;;;;;;;5.43;4.65;;;5.90;93.80;;;;;;5067955;28;20025;-42
2020/12/04 04:54:39;;;;;;;5.75;4.93;;;5.90;93.90;;;;;;5068778;28;20082;-43
2020/12/04 04:57:04;;;;;;;5.88;4.80;;;5.90;93.80;;;;;;5067877;28;20111;-43
2020/12/04 04:59:30;;;;;;;5.53;4.85;;;5.90;93.90;;;;;;5067835;28;20162;-43
2020/12/04 05:01:55;;;;;;;4.97;4.47;;;6.00;93.90;;;;;;5068644;28;20059;-43
2020/12/04 05:04:21;;;;;;;6.20;5.20;;;6.00;93.80;;;;;;5067395;28;20089;-43
2020/12/04 05:06:46;;;;;;;5.18;4.35;;;6.00;93.80;;;;;;5068263;28;20414;-43
2020/12/04 05:09:28;;;;;;;5.80;4.60;;;6.00;93.80;;;;;;5068053;28;20033;-43
2020/12/04 05:11:59;;;;;;;5.05;4.38;;;6.00;93.70;;;;;;5067823;28;20063;-43
2020/12/04 05:14:26;;;;;;;5.68;4.63;;;6.00;93.70;;;;;;5067768;28;20035;-43
2020/12/04 05:16:56;;;;;;;4.70;4.30;;;6.00;93.70;;;;;;5068378;28;20033;-43
2020/12/04 05:19:39;;;;;;;4.95;4.45;;;6.00;93.60;;;;;;5067620;28;20037;-32
2020/12/04 05:22:15;;;;;;;5.38;4.47;;;5.90;93.60;;;;;;5068190;28;20025;-43
2020/12/04 05:24:42;;;;;;;4.35;3.95;;;5.90;93.70;;;;;;5068211;28;20075;-42
2020/12/04 05:27:28;;;;;;;5.88;4.60;;;5.80;93.60;;;;;;5067548;28;20422;-43
2020/12/04 05:30:00;;;;;;;5.32;4.22;;;5.80;93.60;;;;;;5068265;28;20094;-43
2020/12/04 05:32:27;;;;;;;5.32;4.20;;;5.80;93.70;;;;;;5067128;28;20362;-43
2020/12/04 05:35:09;;;;;;;5.07;4.28;;;5.70;93.70;;;;;;5068525;28;20103;-43
2020/12/04 05:37:35;;;;;;;5.40;4.35;;;5.70;93.80;;;;;;5068532;28;20032;-43
2020/12/04 05:40:00;;;;;;;4.97;4.47;;;5.70;93.80;;;;;;5067538;28;20016;-43
2020/12/04 05:42:34;;;;;;;4.65;3.97;;;5.70;93.80;;;;;;5067658;28;20135;-43
2020/12/04 05:45:02;;;;;;;4.80;4.30;;;5.80;93.70;;;;;;5072241;28;20113;-43
2020/12/04 05:47:38;;;;;;;5.03;4.38;;;5.80;93.60;;;;;;5071285;28;20032;-43
2020/12/04 05:50:06;;;;;;;5.10;4.32;;;5.80;93.60;;;;;;5072093;28;20023;-43
2020/12/04 05:52:34;;;;;;;5.03;4.30;;;5.80;93.60;;;;;;5071804;28;20028;-43
2020/12/04 05:55:02;;;;;;;4.90;4.13;;;5.80;93.60;;;;;;5071416;28;20024;-43
2020/12/04 05:57:28;;;;;;;5.05;4.25;;;5.80;93.60;;;;;;5071133;28;20024;-43
2020/12/04 05:59:54;;;;;;;4.50;4.10;;;5.80;93.60;;;;;;5071526;28;20535;-47
2020/12/04 06:02:20;;;;;;;4.40;4.00;;;5.80;93.60;;;;;;5071064;28;20017;-43
2020/12/04 06:04:46;;;;;;;4.85;4.15;;;5.80;93.50;;;;;;5071840;28;20487;-43
2020/12/04 06:07:13;;;;;;;4.78;4.32;;;5.80;93.50;;;;;;5071431;28;20028;-44
2020/12/04 06:09:41;;;;;;;4.07;3.53;;;5.90;93.50;;;;;;5071130;28;20036;-43
2020/12/04 06:12:13;;;;;;;11.80;4.43;;;5.90;93.40;;;;;;5070965;28;20020;-44
2020/12/04 06:14:39;;;;;;;4.18;3.78;;;5.90;93.40;;;;;;5071242;28;20504;-43
2020/12/04 06:17:05;;;;;;;4.78;3.70;;;5.90;93.40;;;;;;5071587;28;20052;-43
2020/12/04 06:19:36;;;;;;;4.38;3.97;;;5.90;93.30;;;;;;5070833;28;20036;-43
2020/12/04 06:22:08;;;;;;;4.93;3.90;;;5.90;93.30;;;;;;5071132;28;20128;-42
2020/12/04 06:24:54;;;;;;;5.18;3.30;;;5.90;93.40;;;;;;5071097;28;20373;-43
2020/12/04 06:27:34;;;;;;;5.50;3.67;;;5.90;93.40;;;;;;5070555;28;20036;-43
2020/12/04 06:30:00;;;;;;;4.65;3.72;;;5.90;93.40;;;;;;5070860;28;20028;-42
2020/12/04 06:32:44;;;;;;;4.35;3.90;;;5.90;93.40;;;;;;5070482;28;20099;-43
2020/12/04 06:35:11;;;;;;;3.88;2.92;;;5.90;93.40;;;;;;5070814;28;20055;-44
2020/12/04 06:37:39;;;;;;;4.35;3.38;;;5.90;93.40;;;;;;5070776;28;20329;-42
2020/12/04 06:40:27;;;;;;;4.05;3.08;;;5.90;93.40;;;;;;5071186;28;20036;-42
2020/12/04 06:42:55;;;;;;;4.15;3.75;;;6.00;93.50;;;;;;5070477;28;20044;-43
2020/12/04 06:45:21;;;;;;;3.92;3.53;;;6.00;93.40;;;;;;5070518;28;20035;-43
2020/12/04 06:48:15;;;;;;;4.53;4.05;;;6.10;93.30;;;;;;5070938;28;20024;-42
2020/12/04 06:50:43;;;;;;;4.15;3.47;;;6.10;93.20;;;;;;5070243;28;20040;-44
2020/12/04 06:53:11;;;;;;;4.82;3.60;;;6.20;93.20;;;;;;5070206;28;20035;-43
2020/12/04 06:55:37;;;;;;;4.32;3.67;;;6.20;93.10;;;;;;5070608;28;20028;-43
2020/12/04 06:58:03;;;;;;;3.42;3.13;;;6.20;93.10;;;;;;5056273;28;20025;-43
2020/12/04 07:00:30;;;;;;;4.55;3.80;;;6.30;93.10;;;;;;5049406;28;20431;-43
2020/12/04 07:02:57;;;;;;;3.90;3.50;;;6.30;93.00;;;;;;5050208;28;20476;-42
2020/12/04 07:05:24;;;;;;;4.63;3.10;;;6.30;93.00;;;;;;5046499;28;20043;-43
2020/12/04 07:07:50;;;;;;;3.85;3.45;;;6.30;92.90;;;;;;5048752;28;20327;-43
2020/12/04 07:10:16;;;;;;;4.07;3.45;;;6.40;92.90;;;;;;5048008;28;20033;-44
2020/12/04 07:12:42;;;;;;;4.20;3.08;;;6.40;92.90;;;;;;5048695;28;20032;-43
2020/12/04 07:15:08;;;;;;;3.78;3.10;;;6.40;92.90;;;;;;5048673;28;20029;-42
2020/12/04 07:17:33;;;;;;;3.85;3.45;;;6.40;92.90;;;;;;5050181;28;20468;-42
2020/12/04 07:19:59;;;;;;;3.40;2.80;;;6.40;92.80;;;;;;5055482;28;20033;-42
2020/12/04 07:22:25;;;;;;;3.45;2.83;;;6.50;92.80;;;;;;5069071;28;20051;-42
2020/12/04 07:24:54;;;;;;;4.00;3.60;;;6.50;92.80;;;;;;5068804;28;20032;-42
2020/12/04 07:27:29;;;;;;;3.35;3.03;;;6.50;92.80;;;;;;5069192;28;20021;-42
2020/12/04 07:29:55;;;;;;;3.10;2.80;;;6.60;92.70;;;;;;5070492;28;20191;-42
2020/12/04 07:32:24;;;;;;;3.25;2.95;;;6.60;92.70;;;;;;5065459;28;20434;-42
2020/12/04 07:34:50;;;;;;;3.20;2.90;;;6.60;92.80;;;;;;5055028;28;20491;-42
2020/12/04 07:37:16;;;;;;;3.30;2.88;;;6.60;92.70;;;;;;5059195;28;20025;-42
2020/12/04 07:39:43;;;;;;;3.60;2.72;;;6.60;92.70;;;;;;5058076;28;20016;-43
2020/12/04 07:42:10;;;;;;;3.38;2.63;;;6.70;92.70;;;;;;5049553;28;20048;-43
2020/12/04 07:44:45;;;;;;;2.53;2.33;;;6.70;92.80;;;;;;5049889;28;20041;-42
2020/12/04 07:47:12;;;;;;;3.08;2.70;;;6.70;92.80;;;;;;5049051;28;20047;-41
2020/12/04 07:49:48;;;;;;;3.17;2.88;;;6.70;92.70;;;;;;5054400;28;20106;-42
2020/12/04 07:52:19;;;;;;;3.17;2.75;;;6.70;92.60;;;;;;5056303;28;20047;-42
2020/12/04 07:54:49;;;;;;;3.28;2.90;;;6.70;92.60;;;;;;5057827;28;20942;-42
2020/12/04 07:57:19;;;;;;;4.22;2.58;;;6.80;92.60;;;;;;5060804;28;20047;-43
2020/12/04 07:59:46;;;;;;;2.90;2.65;;;6.80;92.60;;;;;;5069784;28;20029;-43
2020/12/04 08:02:21;;;;;;;2.85;2.60;;;6.80;92.60;;;;;;5068652;28;20040;-43
2020/12/04 08:04:49;;;;;;;2.90;2.47;;;6.80;92.70;;;;;;5069635;28;20106;-43
2020/12/04 08:07:15;;;;;;;2.42;2.22;;;6.80;92.70;;;;;;5067835;28;20063;-42
2020/12/04 08:09:42;;;;;;;2.75;2.30;;;6.80;92.70;;;;;;5069555;28;20051;-43
2020/12/04 08:12:19;;;;;;;2.92;2.20;;;6.80;92.70;;;;;;5069083;28;20025;-43
2020/12/04 08:14:50;;;;;;;2.50;2.20;;;6.80;92.60;;;;;;5068931;28;20036;-43
2020/12/04 08:17:18;;;;;;;2.25;2.05;;;6.90;92.70;;;;;;5065231;28;20491;-43
2020/12/04 08:19:44;;;;;;;2.53;2.10;;;6.90;92.60;;;;;;5056086;28;20024;-43
2020/12/04 08:22:09;;;;;;;3.25;2.38;;;6.90;92.50;;;;;;5061813;28;20027;-43
2020/12/04 08:25:07;;;;;;;2.47;2.28;;;6.90;92.40;;;;;;5068901;28;20040;-42
2020/12/04 08:27:41;;;;;;;2.40;2.20;;;7.00;92.50;;;;;;5069233;28;20463;-43
2020/12/04 08:30:14;;;;;;;2.65;2.10;;;7.00;92.40;;;;;;5068413;28;20056;-43
2020/12/04 08:32:40;;;;;;;3.58;2.17;;;7.00;92.40;;;;;;5069203;28;20078;-43
2020/12/04 08:35:18;;;;;;;2.38;2.10;;;7.00;92.30;;;;;;5068582;28;20637;-41
2020/12/04 08:37:45;;;;;;;2.28;2.05;;;7.00;92.30;;;;;;5068772;28;20021;-42
2020/12/04 08:40:27;;;;;;;2.40;2.20;;;7.10;92.30;;;;;;5068481;28;20032;-42
2020/12/04 08:42:54;;;;;;;2.83;2.45;;;7.10;92.30;;;;;;5068299;28;20047;-42
2020/12/04 08:45:27;;;;;;;2.83;2.28;;;7.10;92.30;;;;;;5068403;28;20511;-42
2020/12/04 08:47:53;;;;;;;;;;;7.10;92.40;;;;;;5069329;28;20383;-43
2020/12/04 08:50:23;;;;;;;2.40;2.20;;;7.10;92.30;;;;;;5067973;28;19904;-42
2020/12/04 08:52:53;;;;;;;3.63;2.35;;;7.00;92.20;;;;;;5068852;28;20476;-42
2020/12/04 08:55:21;;;;;;;4.60;2.40;;;6.90;92.30;;;;;;5068092;28;20043;-43
2020/12/04 08:57:50;;;;;;;2.95;2.00;;;6.90;92.50;;;;;;5068677;28;20044;-43
2020/12/04 09:00:19;;;;;;;2.15;1.90;;;6.90;92.60;;;;;;5067903;28;20071;-42
2020/12/04 09:02:44;;;;;;;1.83;1.70;;;6.90;92.70;;;;;;5068322;28;20078;-42
2020/12/04 09:05:13;;;;;;;2.30;1.83;;;7.00;92.80;;;;;;5067721;28;20033;-42
2020/12/04 09:07:39;;;;;;;2.30;2.10;;;7.10;92.80;;;;;;5061321;28;20415;-42
2020/12/04 09:10:07;;;;;;;2.10;1.90;;;7.20;92.60;;;;;;5048745;28;20511;-43
2020/12/04 09:12:33;;;;;;;2.15;1.83;;;7.40;92.60;;;;;;5048236;28;20423;-42
2020/12/04 09:14:58;;;;;;;2.00;1.67;;;7.60;92.50;;;;;;5048492;28;20537;-43
2020/12/04 09:17:24;;;;;;;2.22;1.50;;;7.70;92.30;;;;;;5046547;28;20021;-42
2020/12/04 09:19:50;;;;;;;2.40;1.40;;;7.80;92.20;;;;;;5048623;28;20032;-41
2020/12/04 09:22:15;;;;;;;2.33;1.50;;;7.90;92.10;;;;;;5047716;28;20051;-42
2020/12/04 09:24:42;;;;;;;1.52;1.10;;;8.00;92.10;;;;;;5048086;28;20079;-43
2020/12/04 09:27:08;;;;;;;1.63;1.50;;;8.10;92.00;;;;;;5045760;28;20021;-43
2020/12/04 09:29:35;;;;;;;1.77;1.60;;;8.20;92.00;;;;;;5048268;28;20033;-43
2020/12/04 09:32:09;;;;;;;1.50;1.40;;;8.20;91.80;;;;;;5047703;28;20067;-43
2020/12/04 09:34:35;;;;;;;2.17;1.50;;;8.20;91.90;;;;;;5048751;28;20028;-42
2020/12/04 09:37:12;;;;;;;2.53;1.83;;;8.20;91.60;;;;;;5048663;28;20027;-43
2020/12/04 09:39:38;;;;;;;3.33;1.55;;;8.20;91.50;;;;;;5050127;28;20032;-44
2020/12/04 09:42:06;;;;;;;2.78;1.58;;;8.10;91.60;;;;;;5058670;28;20041;-43
2020/12/04 09:44:33;;;;;;;1.60;1.40;;;8.10;91.70;;;;;;5055988;28;20413;-43
2020/12/04 09:46:58;;;;;;;2.45;1.25;;;8.10;91.80;;;;;;5047991;28;20021;-43
2020/12/04 09:49:24;;;;;;;1.50;1.40;;;8.10;91.70;;;;;;5047700;28;20133;-42
2020/12/04 09:51:49;;;;;;;1.58;1.48;;;8.10;91.80;;;;;;5048459;28;20029;-42
2020/12/04 09:54:15;;;;;;;1.95;1.40;;;8.10;91.80;;;;;;5046918;28;20033;-43
2020/12/04 09:56:40;;;;;;;1.67;1.10;;;8.10;91.90;;;;;;5048340;28;20029;-42
2020/12/04 09:59:06;;;;;;;5.07;1.13;;;8.10;91.60;;;;;;5047614;28;20497;-43
2020/12/04 10:01:31;;;;;;;1.90;1.30;;;8.20;91.20;;;;;;5047211;28;20154;-42
2020/12/04 10:03:57;;;;;;;1.38;1.20;;;8.20;91.20;;;;;;5048297;28;20123;-43
2020/12/04 10:06:22;;;;;;;1.85;1.45;;;8.20;91.10;;;;;;5047498;28;20484;-43
2020/12/04 10:08:48;;;;;;;3.33;2.03;;;8.20;91.00;;;;;;5047868;28;20494;-42
2020/12/04 10:11:13;;;;;;;2.22;1.40;;;8.20;91.00;;;;;;5047591;28;20021;-43
2020/12/04 10:13:38;;;;;;;1.33;1.00;;;8.30;91.00;;;;;;5047461;28;20561;-42
2020/12/04 10:16:04;;;;;;;1.30;0.75;;;8.30;90.50;;;;;;5047957;28;20029;-44
2020/12/04 10:18:31;;;;;;;1.50;0.60;;;8.40;90.00;;;;;;5047473;28;20056;-43
2020/12/04 10:20:57;;;;;;;0.80;0.60;;;8.50;90.00;;;;;;5055327;28;20108;-43
2020/12/04 10:23:23;;;;;;;0.95;0.55;;;8.50;90.20;;;;;;5055572;28;20039;-43
2020/12/04 10:25:48;;;;;;;0.68;0.52;;;8.50;90.00;;;;;;5057086;28;20018;-43
2020/12/04 10:28:14;;;;;;;1.50;0.65;;;8.50;88.70;;;;;;5055240;28;20025;-44
2020/12/04 10:30:40;;;;;;;1.52;0.60;;;8.50;86.60;;;;;;5058739;28;20021;-44
2020/12/04 10:33:05;;;;;;;1.33;0.65;;;8.50;86.30;;;;;;5065579;28;20119;-43
2020/12/04 10:35:31;;;;;;;0.77;0.60;;;8.50;85.70;;;;;;5050642;28;20036;-43
2020/12/04 10:37:56;;;;;;;0.73;0.45;;;8.60;86.60;;;;;;5051565;28;20033;-43
2020/12/04 10:40:22;;;;;;;0.50;0.50;;;8.60;85.90;;;;;;5050551;28;20110;-43
2020/12/04 10:42:47;;;;;;;0.60;0.40;;;8.60;85.90;;;;;;5050991;28;20143;-42
2020/12/04 10:45:12;;;;;;;2.17;1.50;;;8.60;85.90;;;;;;5053389;28;20053;-43
2020/12/04 10:47:38;;;;;;;2.13;1.00;;;8.60;84.60;;;;;;5051220;28;20028;-42
2020/12/04 10:50:03;;;;;;;0.50;0.50;;;8.60;83.70;;;;;;5062702;28;20099;-43
2020/12/04 10:52:29;;;;;;;1.05;0.70;;;8.60;83.60;;;;;;5062034;28;20024;-43
2020/12/04 10:54:54;;;;;;;3.50;1.55;;;8.60;82.80;;;;;;5070676;28;20030;-42
2020/12/04 10:57:20;;;;;;;1.08;0.75;;;8.60;83.80;;;;;;5060978;28;20029;-41
2020/12/04 10:59:46;;;;;;;0.55;0.50;;;8.60;81.70;;;;;;5065306;28;20096;-42
2020/12/04 11:02:19;;;;;;;0.50;0.50;;;8.60;82.70;;;;;;5069760;28;20659;-43
2020/12/04 11:07:29;;;;;;;0.98;0.50;;;8.70;80.90;;;;;;5056476;28;20497;-43
2020/12/04 11:09:54;;;;;;;0.40;0.40;;;8.70;80.60;;;;;;5050195;28;20100;-43
2020/12/04 11:12:20;;;;;;;0.50;0.45;;;8.70;80.70;;;;;;5050077;28;20086;-44
2020/12/04 11:14:45;;;;;;;0.73;0.40;;;8.80;81.00;;;;;;5060011;28;20445;-43
2020/12/04 11:17:11;;;;;;;0.68;0.40;;;8.80;80.90;;;;;;5058648;28;20027;-42
2020/12/04 11:19:36;;;;;;;0.57;0.40;;;8.90;80.40;;;;;;5069994;28;20430;-42
2020/12/04 11:22:02;;;;;;;0.55;0.40;;;8.90;81.40;;;;;;5070207;28;20020;-42
2020/12/04 11:24:28;;;;;;;2.05;0.57;;;8.90;79.80;;;;;;5069186;28;20033;-43
2020/12/04 11:26:53;;;;;;;0.80;0.40;;;9.00;80.40;;;;;;5070821;28;20021;-43
2020/12/04 11:29:19;;;;;;;0.43;0.43;;;9.00;79.50;;;;;;5069906;28;20025;-42
2020/12/04 11:31:44;;;;;;;0.73;0.40;;;9.00;80.10;;;;;;5069945;28;20497;-42
2020/12/04 11:34:10;;;;;;;0.93;0.63;;;9.10;79.30;;;;;;5069857;28;20114;-43
2020/12/04 11:36:36;;;;;;;2.33;1.50;;;9.10;77.80;;;;;;5069911;28;20044;-44
2020/12/04 11:39:01;;;;;;;1.60;0.77;;;9.00;78.50;;;;;;5069633;28;20132;-42
2020/12/04 11:41:30;;;;;;;0.73;0.50;;;9.00;79.10;;;;;;5068448;28;20021;-43
2020/12/04 11:43:56;;;;;;;0.50;0.40;;;9.10;79.70;;;;;;5069667;28;20129;-43
2020/12/04 11:46:22;;;;;;;0.90;0.45;;;9.10;79.80;;;;;;5069256;28;20411;-42
2020/12/04 11:48:47;;;;;;;0.40;0.38;;;9.20;79.70;;;;;;5063791;28;20037;-42
2020/12/04 11:51:13;;;;;;;0.68;0.68;;;9.20;78.60;;;;;;5060304;28;20607;-43
2020/12/04 11:53:38;;;;;;;0.55;0.55;;;9.30;77.30;;;;;;5062430;28;20021;-42
2020/12/04 11:56:04;;;;;;;0.85;0.68;;;9.20;78.40;;;;;;5058829;28;20020;-42
2020/12/04 11:58:29;;;;;;;1.95;0.60;;;9.20;78.00;;;;;;5048806;28;20051;-43
2020/12/04 12:00:55;;;;;;;1.08;0.60;;;9.20;78.20;;;;;;5048907;28;20035;-42
2020/12/04 12:03:20;;;;;;;0.40;0.40;;;9.20;78.40;;;;;;5048895;28;20044;-43
2020/12/04 12:05:46;;;;;;;0.65;0.47;;;9.20;78.00;;;;;;5049727;28;20032;-42
2020/12/04 12:08:11;;;;;;;1.13;0.45;;;9.20;78.20;;;;;;5048555;28;20068;-43
2020/12/04 12:10:37;;;;;;;0.50;0.43;;;9.20;77.60;;;;;;5049362;28;20025;-43
2020/12/04 12:13:02;;;;;;;0.43;0.40;;;9.20;78.00;;;;;;5057955;28;20484;-43
2020/12/04 12:15:28;;;;;;;0.60;0.47;;;9.20;78.80;;;;;;4941864;28;20016;-43
2020/12/04 12:17:53;;;;;;;1.50;0.55;;;9.20;79.10;;;;;;5056934;28;20074;-42
2020/12/04 12:20:19;;;;;;;2.00;0.47;;;9.20;79.70;;;;;;5059457;28;20071;-43
2020/12/04 12:22:45;;;;;;;1.15;0.73;;;9.20;79.10;;;;;;5064917;28;20028;-43
2020/12/04 12:25:10;;;;;;;1.27;0.70;;;9.20;79.20;;;;;;5067560;28;20115;-42
2020/12/04 12:27:36;;;;;;;0.95;0.70;;;9.20;78.80;;;;;;5068245;28;20020;-42
2020/12/04 12:30:02;;;;;;;0.40;0.40;;;9.20;79.40;;;;;;5061512;28;20494;-43
2020/12/04 12:32:27;;;;;;;0.50;0.50;;;9.20;79.60;;;;;;5059625;28;20024;-42
2020/12/04 12:35:00;;;;;;;0.43;0.43;;;9.20;79.90;;;;;;5057256;28;20021;-42
2020/12/04 12:37:27;;;;;;;1.15;0.60;;;9.20;79.90;;;;;;5047789;28;20033;-43
2020/12/04 12:39:53;;;;;;;0.85;0.63;;;9.20;80.10;;;;;;5048297;28;20036;-42
2020/12/04 12:42:19;;;;;;;1.95;1.33;;;9.20;79.20;;;;;;5047352;28;20037;-43
2020/12/04 12:44:46;;;;;;;1.10;0.90;;;9.10;79.60;;;;;;5048203;28;20503;-43
2020/12/04 12:47:12;;;;;;;1.73;0.63;;;9.10;79.60;;;;;;5047478;28;20060;-43
2020/12/04 12:49:40;;;;;;;1.10;0.70;;;9.10;80.00;;;;;;5047641;28;20403;-42
2020/12/04 12:52:06;;;;;;;0.63;0.43;;;9.00;79.90;;;;;;5056296;28;20033;-43
2020/12/04 12:54:31;;;;;;;0.77;0.50;;;9.00;80.10;;;;;;5058243;28;20025;-42
2020/12/04 12:56:58;;;;;;;0.60;0.55;;;9.00;79.40;;;;;;5062137;28;20019;-42
2020/12/04 12:59:24;;;;;;;1.90;0.80;;;8.90;78.10;;;;;;5062309;28;20377;-43